createdAt,value
2019-03-01T00:00:54.872Z,9.60
2019-03-01T00:03:23.982Z,9.60
2019-03-01T00:06:13.238Z,9.60
2019-03-01T00:09:27.327Z,9.60
2019-03-01T00:12:26.897Z,9.60
2019-03-01T00:15:17.439Z,9.60
2019-03-01T00:18:24.685Z,9.60
2019-03-01T00:21:15.739Z,9.60
2019-03-01T00:24:01.808Z,9.60
2019-03-01T00:27:27.027Z,9.60
2019-03-01T00:30:32.043Z,9.60
2019-03-01T00:33:35.473Z,9.60
2019-03-01T00:36:22.955Z,9.60
2019-03-01T00:39:39.054Z,9.60
2019-03-01T00:42:42.935Z,9.60
2019-03-01T00:45:12.065Z,9.50
2019-03-01T00:47:41.338Z,9.30
2019-03-01T00:50:10.635Z,9.20
2019-03-01T00:52:39.835Z,9.20
2019-03-01T00:55:09.107Z,9.20
2019-03-01T00:57:38.315Z,9.10
2019-03-01T01:00:10.678Z,9.00
2019-03-01T01:02:39.940Z,8.80
2019-03-01T01:05:09.164Z,8.80
2019-03-01T01:07:38.467Z,8.70
2019-03-01T01:10:07.619Z,8.80
2019-03-01T01:12:36.973Z,8.80
2019-03-01T01:15:09.556Z,8.70
2019-03-01T01:17:38.859Z,8.70
2019-03-01T01:20:08.712Z,8.60
2019-03-01T01:22:37.966Z,8.50
2019-03-01T01:25:11.335Z,8.40
2019-03-01T01:27:41.100Z,8.40
2019-03-01T01:30:11.676Z,8.50
2019-03-01T01:32:40.921Z,8.40
2019-03-01T01:35:10.107Z,8.30
2019-03-01T01:37:39.402Z,8.20
2019-03-01T01:40:09.933Z,8.20
2019-03-01T01:42:39.129Z,8.30
2019-03-01T01:45:08.767Z,8.30
2019-03-01T01:47:37.911Z,8.20
2019-03-01T01:50:07.650Z,8.20
2019-03-01T01:52:36.856Z,8.20
2019-03-01T01:55:06.753Z,8.30
2019-03-01T01:57:35.904Z,8.20
2019-03-01T02:00:05.845Z,8.20
2019-03-01T02:02:35.257Z,8.10
2019-03-01T02:05:04.762Z,8.20
2019-03-01T02:07:34.000Z,8.20
2019-03-01T02:10:03.255Z,8.20
2019-03-01T02:12:32.453Z,8.00
2019-03-01T02:15:03.493Z,8.10
2019-03-01T02:17:32.682Z,8.20
2019-03-01T02:20:01.847Z,8.20
2019-03-01T02:22:33.984Z,8.00
2019-03-01T02:25:03.311Z,8.00
2019-03-01T02:27:32.607Z,8.00
2019-03-01T02:30:02.576Z,8.00
2019-03-01T02:32:40.649Z,7.90
2019-03-01T02:35:11.785Z,7.90
2019-03-01T02:37:40.962Z,7.90
2019-03-01T02:40:11.167Z,8.00
2019-03-01T02:42:40.292Z,8.00
2019-03-01T02:45:11.372Z,7.90
2019-03-01T02:47:40.956Z,7.80
2019-03-01T02:50:11.198Z,7.80
2019-03-01T02:52:40.579Z,7.90
2019-03-01T02:55:10.864Z,7.90
2019-03-01T02:57:40.200Z,7.90
2019-03-01T03:00:19.277Z,8.00
2019-03-01T03:02:48.504Z,7.90
2019-03-01T03:05:17.697Z,7.90
2019-03-01T03:07:48.997Z,7.90
2019-03-01T03:10:18.248Z,7.90
2019-03-01T03:12:49.514Z,7.90
2019-03-01T03:15:23.325Z,7.80
2019-03-01T03:17:52.450Z,7.90
2019-03-01T03:20:21.549Z,7.90
2019-03-01T03:22:50.680Z,7.70
2019-03-01T03:25:19.905Z,7.70
2019-03-01T03:27:49.107Z,7.80
2019-03-01T03:30:18.738Z,7.80
2019-03-01T03:32:47.917Z,7.80
2019-03-01T03:35:17.076Z,7.80
2019-03-01T03:37:46.243Z,7.90
2019-03-01T03:40:15.979Z,7.90
2019-03-01T03:42:45.180Z,7.90
2019-03-01T03:45:14.430Z,7.90
2019-03-01T03:47:43.810Z,7.80
2019-03-01T03:50:13.850Z,7.90
2019-03-01T03:52:44.775Z,7.90
2019-03-01T03:55:14.681Z,7.90
2019-03-01T03:57:49.675Z,7.90
2019-03-01T04:00:19.964Z,7.90
2019-03-01T04:02:49.154Z,7.90
2019-03-01T04:05:18.423Z,7.90
2019-03-01T04:07:47.711Z,7.90
2019-03-01T04:10:16.797Z,7.80
2019-03-01T04:12:45.931Z,7.70
2019-03-01T04:15:15.514Z,7.70
2019-03-01T04:17:44.644Z,7.80
2019-03-01T04:20:15.673Z,7.80
2019-03-01T04:22:44.919Z,7.70
2019-03-01T04:25:14.058Z,7.70
2019-03-01T04:27:43.458Z,7.70
2019-03-01T04:30:14.596Z,7.80
2019-03-01T04:32:43.844Z,7.80
2019-03-01T04:35:13.763Z,7.80
2019-03-01T04:37:43.271Z,7.80
2019-03-01T04:40:13.344Z,7.80
2019-03-01T04:42:42.827Z,7.90
2019-03-01T04:45:12.861Z,7.90
2019-03-01T04:47:42.030Z,7.90
2019-03-01T04:50:11.396Z,7.90
2019-03-01T04:52:40.749Z,7.80
2019-03-01T04:55:15.257Z,7.90
2019-03-01T04:57:44.551Z,7.90
2019-03-01T05:00:16.136Z,7.90
2019-03-01T05:02:45.450Z,8.00
2019-03-01T05:05:15.530Z,7.90
2019-03-01T05:07:44.785Z,7.80
2019-03-01T05:10:14.331Z,7.90
2019-03-01T05:12:43.743Z,7.90
2019-03-01T05:15:17.831Z,7.80
2019-03-01T05:17:46.962Z,7.80
2019-03-01T05:20:16.202Z,7.80
2019-03-01T05:22:45.339Z,7.90
2019-03-01T05:25:14.641Z,7.90
2019-03-01T05:27:43.801Z,7.80
2019-03-01T05:30:14.434Z,7.90
2019-03-01T05:32:43.693Z,7.90
2019-03-01T05:35:12.820Z,7.90
2019-03-01T05:37:42.017Z,7.80
2019-03-01T05:40:12.125Z,7.80
2019-03-01T05:42:41.288Z,7.80
2019-03-01T05:45:16.432Z,7.80
2019-03-01T05:47:45.581Z,7.80
2019-03-01T05:50:15.149Z,7.90
2019-03-01T05:52:44.702Z,7.90
2019-03-01T05:55:15.577Z,7.90
2019-03-01T05:58:20.523Z,7.90
2019-03-01T06:00:49.924Z,7.90
2019-03-01T06:04:09.222Z,7.90
2019-03-01T06:06:47.120Z,7.80
2019-03-01T06:09:37.041Z,7.90
2019-03-01T06:12:21.844Z,8.00
2019-03-01T06:15:52.960Z,8.00
2019-03-01T06:18:54.160Z,8.10
2019-03-01T06:22:05.854Z,8.10
2019-03-01T06:24:51.110Z,8.10
2019-03-01T06:28:01.157Z,8.10
2019-03-01T06:31:09.126Z,8.10
2019-03-01T06:34:14.378Z,8.10
2019-03-01T06:37:18.372Z,8.10
2019-03-01T06:40:23.617Z,8.20
2019-03-01T06:43:46.371Z,8.20
2019-03-01T06:46:47.750Z,8.30
2019-03-01T06:49:31.174Z,8.30
2019-03-01T06:52:01.311Z,8.30
2019-03-01T06:54:30.492Z,8.30
2019-03-01T06:56:59.978Z,8.30
2019-03-01T06:59:29.351Z,8.40
2019-03-01T07:01:58.637Z,8.40
2019-03-01T07:04:27.734Z,8.50
2019-03-01T07:06:57.475Z,8.50
2019-03-01T07:09:26.812Z,8.50
2019-03-01T07:11:56.276Z,8.50
2019-03-01T07:14:25.743Z,8.60
2019-03-01T07:16:54.898Z,8.60
2019-03-01T07:19:24.167Z,8.60
2019-03-01T07:21:53.526Z,8.60
2019-03-01T07:24:22.919Z,8.70
2019-03-01T07:26:52.403Z,8.60
2019-03-01T07:29:21.635Z,8.70
2019-03-01T07:31:50.932Z,8.70
2019-03-01T07:34:20.577Z,8.70
2019-03-01T07:36:49.795Z,8.80
2019-03-01T07:39:19.163Z,8.80
2019-03-01T07:41:49.568Z,8.90
2019-03-01T07:44:18.951Z,8.90
2019-03-01T07:46:52.963Z,8.90
2019-03-01T07:49:22.345Z,9.00
2019-03-01T07:51:51.601Z,9.00
2019-03-01T07:54:22.323Z,9.10
2019-03-01T07:56:51.806Z,9.20
2019-03-01T07:59:21.162Z,9.20
2019-03-01T08:01:50.340Z,9.30
2019-03-01T08:04:19.682Z,9.30
2019-03-01T08:06:49.667Z,9.40
2019-03-01T08:09:18.984Z,9.40
2019-03-01T08:11:48.368Z,9.40
2019-03-01T08:14:17.603Z,9.50
2019-03-01T08:16:46.889Z,9.50
2019-03-01T08:19:22.419Z,9.60
2019-03-01T08:21:49.693Z,9.60
2019-03-01T08:24:17.997Z,9.60
2019-03-01T08:26:47.301Z,9.70
2019-03-01T08:29:16.596Z,9.70
2019-03-01T08:31:46.018Z,9.70
2019-03-01T08:34:17.733Z,9.80
2019-03-01T08:36:46.501Z,9.80
2019-03-01T08:39:15.810Z,9.90
2019-03-01T08:41:45.158Z,9.90
2019-03-01T08:44:14.344Z,9.90
2019-03-01T08:46:45.403Z,10.00
2019-03-01T08:49:14.730Z,10.10
2019-03-01T08:51:43.943Z,10.20
2019-03-01T08:54:13.300Z,10.20
2019-03-01T08:56:42.512Z,10.20
2019-03-01T08:59:14.187Z,10.30
2019-03-01T09:01:45.050Z,10.30
2019-03-01T09:04:17.396Z,10.30
2019-03-01T09:06:45.041Z,10.30
2019-03-01T09:09:17.611Z,10.30
2019-03-01T09:11:45.433Z,10.40
2019-03-01T09:14:15.993Z,10.40
2019-03-01T09:16:45.227Z,10.40
2019-03-01T09:19:14.496Z,10.50
2019-03-01T09:21:44.635Z,10.50
2019-03-01T09:24:14.709Z,10.60
2019-03-01T09:26:43.933Z,10.50
2019-03-01T09:29:18.287Z,10.60
2019-03-01T09:31:44.083Z,10.60
2019-03-01T09:34:13.335Z,10.60
2019-03-01T09:36:51.453Z,10.70
2019-03-01T09:39:19.610Z,10.70
2019-03-01T09:41:48.957Z,10.70
2019-03-01T09:44:18.238Z,10.70
2019-03-01T09:46:47.574Z,10.60
2019-03-01T09:49:16.962Z,10.60
2019-03-01T09:51:49.087Z,10.70
2019-03-01T09:54:17.327Z,10.60
2019-03-01T09:56:46.540Z,10.50
2019-03-01T09:59:17.477Z,10.50
2019-03-01T10:01:47.049Z,10.50
2019-03-01T10:04:16.550Z,10.40
2019-03-01T10:06:45.853Z,10.40
2019-03-01T10:09:15.081Z,10.40
2019-03-01T10:11:44.300Z,10.30
2019-03-01T10:14:13.598Z,10.30
2019-03-01T10:16:42.852Z,10.30
2019-03-01T10:19:13.980Z,10.30
2019-03-01T10:21:43.217Z,10.30
2019-03-01T10:24:14.498Z,10.30
2019-03-01T10:26:43.702Z,10.30
2019-03-01T10:29:13.135Z,10.30
2019-03-01T10:31:42.556Z,10.20
2019-03-01T10:34:13.020Z,10.20
2019-03-01T10:36:42.246Z,10.10
2019-03-01T10:39:14.681Z,10.10
2019-03-01T10:41:44.707Z,10.10
2019-03-01T10:44:13.983Z,10.00
2019-03-01T10:46:43.216Z,10.00
2019-03-01T10:49:27.460Z,10.00
2019-03-01T10:51:44.883Z,9.90
2019-03-01T10:54:14.462Z,9.90
2019-03-01T10:56:44.158Z,9.80
2019-03-01T10:59:13.725Z,9.80
2019-03-01T11:01:43.281Z,9.80
2019-03-01T11:04:12.518Z,9.90
2019-03-01T11:06:41.971Z,9.80
2019-03-01T11:09:11.346Z,9.80
2019-03-01T11:11:41.331Z,9.80
2019-03-01T11:14:10.687Z,9.80
2019-03-01T11:16:39.970Z,9.80
2019-03-01T11:19:09.296Z,9.80
2019-03-01T11:21:38.557Z,9.70
2019-03-01T11:24:07.724Z,9.70
2019-03-01T11:26:37.009Z,9.70
2019-03-01T11:29:06.207Z,9.70
2019-03-01T11:31:35.545Z,9.70
2019-03-01T11:34:05.054Z,9.70
2019-03-01T11:36:34.521Z,9.80
2019-03-01T11:39:05.375Z,9.80
2019-03-01T11:41:34.650Z,9.90
2019-03-01T11:44:04.414Z,9.90
2019-03-01T11:46:33.563Z,10.00
2019-03-01T11:49:02.927Z,10.10
2019-03-01T11:51:32.355Z,10.10
2019-03-01T11:54:01.633Z,10.20
2019-03-01T11:56:30.728Z,10.20
2019-03-01T11:58:59.968Z,10.20
2019-03-01T12:01:29.248Z,10.20
2019-03-01T12:03:58.706Z,10.20
2019-03-01T12:06:28.066Z,10.10
2019-03-01T12:08:57.410Z,10.20
2019-03-01T12:11:26.610Z,10.20
2019-03-01T12:13:55.937Z,10.30
2019-03-01T12:16:25.301Z,10.20
2019-03-01T12:18:54.653Z,10.20
2019-03-01T12:21:23.926Z,10.20
2019-03-01T12:23:53.140Z,10.20
2019-03-01T12:26:22.480Z,10.00
2019-03-01T12:28:51.770Z,10.00
2019-03-01T12:31:20.953Z,9.90
2019-03-01T12:33:50.119Z,9.80
2019-03-01T12:36:19.527Z,9.80
2019-03-01T12:38:48.765Z,9.70
2019-03-01T12:41:18.244Z,9.60
2019-03-01T12:43:47.633Z,9.60
2019-03-01T12:46:16.952Z,9.60
2019-03-01T12:48:46.281Z,9.60
2019-03-01T12:51:15.525Z,9.60
2019-03-01T12:53:44.853Z,9.50
2019-03-01T12:56:14.103Z,9.40
2019-03-01T12:58:43.319Z,9.40
2019-03-01T13:01:12.568Z,9.40
2019-03-01T13:03:43.769Z,9.30
2019-03-01T13:06:12.723Z,9.20
2019-03-01T13:08:41.869Z,9.20
2019-03-01T13:11:12.584Z,9.10
2019-03-01T13:13:41.923Z,9.10
2019-03-01T13:16:11.283Z,9.10
2019-03-01T13:18:40.602Z,9.10
2019-03-01T13:21:12.868Z,9.10
2019-03-01T13:23:41.351Z,9.10
2019-03-01T13:26:10.735Z,9.10
2019-03-01T13:28:40.065Z,9.00
2019-03-01T13:31:11.389Z,9.00
2019-03-01T13:33:40.269Z,9.00
2019-03-01T13:36:10.143Z,8.90
2019-03-01T13:38:39.376Z,8.90
2019-03-01T13:41:09.058Z,8.90
2019-03-01T13:43:38.332Z,8.90
2019-03-01T13:46:07.492Z,8.80
2019-03-01T13:48:36.738Z,8.80
2019-03-01T13:51:05.945Z,8.80
2019-03-01T13:53:35.285Z,8.70
2019-03-01T13:56:04.639Z,8.80
2019-03-01T13:58:33.976Z,8.70
2019-03-01T14:01:03.377Z,8.80
2019-03-01T14:03:32.613Z,8.70
2019-03-01T14:06:02.270Z,8.70
2019-03-01T14:08:31.712Z,8.70
2019-03-01T14:11:01.034Z,8.60
2019-03-01T14:13:30.285Z,8.60
2019-03-01T14:15:59.413Z,8.50
2019-03-01T14:18:28.593Z,8.50
2019-03-01T14:20:59.038Z,8.50
2019-03-01T14:23:28.435Z,8.40
2019-03-01T14:25:57.656Z,8.40
2019-03-01T14:28:26.950Z,8.40
2019-03-01T14:30:56.151Z,8.40
2019-03-01T14:33:25.398Z,8.30
2019-03-01T14:35:54.498Z,8.30
2019-03-01T14:38:23.716Z,8.20
2019-03-01T14:40:56.091Z,8.20
2019-03-01T14:43:25.425Z,8.20
2019-03-01T14:45:54.699Z,8.10
2019-03-01T14:48:46.081Z,8.00
2019-03-01T14:51:13.819Z,8.10
2019-03-01T14:53:42.870Z,8.10
2019-03-01T14:56:18.555Z,8.10
2019-03-01T14:58:55.915Z,8.00
2019-03-01T15:01:38.016Z,7.90
2019-03-01T15:04:07.227Z,7.90
2019-03-01T15:06:37.251Z,8.00
2019-03-01T15:09:07.572Z,8.00
2019-03-01T15:11:36.663Z,8.00
2019-03-01T15:14:12.090Z,8.00
2019-03-01T15:16:39.366Z,8.00
2019-03-01T15:19:09.023Z,8.00
2019-03-01T15:21:38.389Z,7.90
2019-03-01T15:24:07.613Z,7.80
2019-03-01T15:26:36.778Z,7.80
2019-03-01T15:29:05.942Z,7.80
2019-03-01T15:31:35.156Z,7.80
2019-03-01T15:34:04.640Z,7.80
2019-03-01T15:36:33.743Z,7.70
2019-03-01T15:39:04.447Z,7.60
2019-03-01T15:41:33.491Z,7.50
2019-03-01T15:44:02.563Z,7.40
2019-03-01T15:46:31.676Z,7.40
2019-03-01T15:49:00.666Z,7.30
2019-03-01T15:51:29.843Z,7.30
2019-03-01T15:54:01.021Z,7.30
2019-03-01T15:56:29.616Z,7.40
2019-03-01T15:58:58.595Z,7.30
2019-03-01T16:01:27.734Z,7.30
2019-03-01T16:03:57.181Z,7.30
2019-03-01T16:06:27.209Z,7.30
2019-03-01T16:08:56.276Z,7.30
2019-03-01T16:11:25.328Z,7.20
2019-03-01T16:13:54.416Z,7.20
2019-03-01T16:16:23.586Z,7.20
2019-03-01T16:18:52.646Z,7.10
2019-03-01T16:21:22.078Z,7.00
2019-03-01T16:23:51.179Z,7.00
2019-03-01T16:26:29.402Z,6.90
2019-03-01T16:28:50.939Z,6.90
2019-03-01T16:31:20.066Z,6.90
2019-03-01T16:33:49.164Z,6.90
2019-03-01T16:36:26.461Z,6.80
2019-03-01T16:38:54.521Z,6.80
2019-03-01T16:41:23.513Z,6.70
2019-03-01T16:43:52.731Z,6.70
2019-03-01T16:46:21.729Z,6.70
2019-03-01T16:48:52.306Z,6.60
2019-03-01T16:51:21.656Z,6.60
2019-03-01T16:53:50.727Z,6.50
2019-03-01T16:56:19.707Z,6.50
2019-03-01T16:58:49.069Z,6.50
2019-03-01T17:01:18.209Z,6.40
2019-03-01T17:03:49.521Z,6.40
2019-03-01T17:06:18.004Z,6.40
2019-03-01T17:08:47.055Z,6.40
2019-03-01T17:11:16.081Z,6.40
2019-03-01T17:13:45.211Z,6.40
2019-03-01T17:16:14.302Z,6.40
2019-03-01T17:18:44.650Z,6.40
2019-03-01T17:21:15.832Z,6.30
2019-03-01T17:23:44.978Z,6.30
2019-03-01T17:26:14.111Z,6.30
2019-03-01T17:28:43.294Z,6.20
2019-03-01T17:31:12.380Z,6.20
2019-03-01T17:33:41.366Z,6.20
2019-03-01T17:36:12.908Z,6.20
2019-03-01T17:38:45.970Z,6.20
2019-03-01T17:41:12.566Z,6.20
2019-03-01T17:43:41.697Z,6.20
2019-03-01T17:46:10.752Z,6.20
2019-03-01T17:48:39.804Z,6.20
2019-03-01T17:51:28.909Z,6.10
2019-03-01T17:53:58.231Z,6.10
2019-03-01T17:56:27.276Z,6.10
2019-03-01T17:58:58.150Z,6.10
2019-03-01T18:01:27.402Z,6.20
2019-03-01T18:03:57.929Z,6.10
2019-03-01T18:06:27.211Z,6.10
2019-03-01T18:08:56.287Z,6.10
2019-03-01T18:11:26.133Z,6.10
2019-03-01T18:13:56.941Z,6.10
2019-03-01T18:16:26.247Z,6.10
2019-03-01T18:18:55.404Z,6.10
2019-03-01T18:21:24.447Z,6.10
2019-03-01T18:23:53.537Z,6.10
2019-03-01T18:26:23.075Z,6.10
2019-03-01T18:28:52.338Z,6.10
2019-03-01T18:31:21.541Z,6.00
2019-03-01T18:33:53.718Z,6.10
2019-03-01T18:36:21.370Z,6.10
2019-03-01T18:38:50.500Z,6.10
2019-03-01T18:41:19.677Z,6.10
2019-03-01T18:43:50.174Z,6.10
2019-03-01T18:46:20.596Z,6.10
2019-03-01T18:48:49.725Z,6.10
2019-03-01T18:51:18.894Z,6.10
2019-03-01T18:53:48.106Z,6.10
2019-03-01T18:56:17.690Z,6.00
2019-03-01T18:58:48.949Z,6.00
2019-03-01T19:01:18.225Z,6.00
2019-03-01T19:03:47.363Z,6.00
2019-03-01T19:06:17.206Z,6.00
2019-03-01T19:08:46.511Z,6.00
2019-03-01T19:11:15.679Z,6.00
2019-03-01T19:13:44.841Z,6.00
2019-03-01T19:16:14.029Z,6.00
2019-03-01T19:18:43.294Z,6.00
2019-03-01T19:21:13.960Z,6.00
2019-03-01T19:23:43.489Z,6.00
2019-03-01T19:26:12.547Z,6.00
2019-03-01T19:28:41.607Z,5.90
2019-03-01T19:31:10.559Z,6.00
2019-03-01T19:33:41.589Z,5.90
2019-03-01T19:36:10.337Z,6.00
2019-03-01T19:38:39.463Z,5.90
2019-03-01T19:41:08.524Z,5.90
2019-03-01T19:43:37.637Z,5.90
2019-03-01T19:46:06.679Z,6.00
2019-03-01T19:48:37.286Z,5.90
2019-03-01T19:51:06.522Z,5.90
2019-03-01T19:53:37.481Z,5.90
2019-03-01T19:56:06.383Z,5.90
2019-03-01T19:58:35.462Z,5.90
2019-03-01T20:01:04.547Z,5.90
2019-03-01T20:03:33.686Z,5.90
2019-03-01T20:06:04.488Z,5.90
2019-03-01T20:08:33.541Z,6.00
2019-03-01T20:11:02.615Z,6.00
2019-03-01T20:13:31.776Z,6.00
2019-03-01T20:16:00.835Z,6.00
2019-03-01T20:18:29.920Z,6.00
2019-03-01T20:20:59.045Z,6.00
2019-03-01T20:23:29.467Z,5.90
2019-03-01T20:25:58.959Z,5.90
2019-03-01T20:28:27.945Z,6.00
2019-03-01T20:30:56.997Z,6.00
2019-03-01T20:33:27.123Z,5.90
2019-03-01T20:35:57.032Z,5.90
2019-03-01T20:38:26.014Z,5.90
2019-03-01T20:40:54.968Z,5.90
2019-03-01T20:43:23.864Z,5.90
2019-03-01T20:45:52.895Z,5.90
2019-03-01T20:48:21.984Z,5.90
2019-03-01T20:50:51.899Z,5.90
2019-03-01T20:53:21.072Z,5.80
2019-03-01T20:55:51.012Z,5.90
2019-03-01T20:58:22.096Z,5.80
2019-03-01T21:00:50.914Z,5.80
2019-03-01T21:03:19.980Z,5.80
2019-03-01T21:05:49.087Z,5.80
2019-03-01T21:08:18.135Z,5.80
2019-03-01T21:10:50.111Z,5.80
2019-03-01T21:13:18.107Z,5.80
2019-03-01T21:15:47.239Z,5.80
2019-03-01T21:18:16.432Z,5.80
2019-03-01T21:20:45.601Z,5.80
2019-03-01T21:23:15.131Z,5.80
2019-03-01T21:25:45.065Z,5.80
2019-03-01T21:28:14.283Z,5.80
2019-03-01T21:30:45.501Z,5.70
2019-03-01T21:33:14.149Z,5.80
2019-03-01T21:35:43.184Z,5.70
2019-03-01T21:38:13.953Z,5.80
2019-03-01T21:40:43.069Z,5.80
2019-03-01T21:43:12.214Z,5.80
2019-03-01T21:45:41.304Z,5.80
2019-03-01T21:48:10.355Z,5.80
2019-03-01T21:50:42.538Z,5.80
2019-03-01T21:53:11.022Z,5.80
2019-03-01T21:55:40.098Z,5.80
2019-03-01T21:58:09.207Z,5.80
2019-03-01T22:00:38.307Z,5.80
2019-03-01T22:03:07.380Z,5.80
2019-03-01T22:05:36.494Z,5.80
2019-03-01T22:08:05.555Z,5.70
2019-03-01T22:10:35.579Z,5.70
2019-03-01T22:13:05.423Z,5.70
2019-03-01T22:15:34.485Z,5.80
2019-03-01T22:18:03.631Z,5.80
2019-03-01T22:20:32.764Z,5.80
2019-03-01T22:23:01.866Z,5.70
2019-03-01T22:25:31.159Z,5.70
2019-03-01T22:28:01.102Z,5.70
2019-03-01T22:30:31.027Z,5.70
2019-03-01T22:33:00.060Z,5.70
2019-03-01T22:35:29.122Z,5.70
2019-03-01T22:38:00.941Z,5.70
2019-03-01T22:40:29.383Z,5.80
2019-03-01T22:42:58.638Z,5.80
2019-03-01T22:45:27.716Z,5.80
2019-03-01T22:47:56.755Z,5.70
2019-03-01T22:50:25.805Z,5.70
2019-03-01T22:52:54.883Z,5.80
2019-03-01T22:55:23.967Z,5.80
2019-03-01T22:57:53.120Z,5.80
2019-03-01T23:01:03.945Z,5.80
2019-03-01T23:03:33.150Z,5.80
2019-03-01T23:06:02.282Z,5.80
2019-03-01T23:08:31.761Z,5.80
2019-03-01T23:11:02.200Z,5.70
2019-03-01T23:13:31.259Z,5.80
2019-03-01T23:16:00.271Z,5.80
2019-03-01T23:18:29.247Z,5.80
2019-03-01T23:21:01.010Z,5.80
2019-03-01T23:23:31.002Z,5.80
2019-03-01T23:26:00.036Z,5.80
2019-03-01T23:28:29.084Z,5.80
2019-03-01T23:31:00.523Z,5.80
2019-03-01T23:33:31.686Z,5.80
2019-03-01T23:35:59.717Z,5.80
2019-03-01T23:38:28.822Z,5.80
2019-03-01T23:40:57.895Z,5.80
2019-03-01T23:43:27.580Z,5.80
2019-03-01T23:45:57.717Z,5.80
2019-03-01T23:48:26.702Z,5.70
2019-03-01T23:50:55.791Z,5.70
2019-03-01T23:53:24.791Z,5.80
2019-03-01T23:55:54.748Z,5.80
2019-03-01T23:58:24.712Z,5.80
